sensor_id;sensor_type;location;lat;lon;timestamp;P1;durP1;ratioP1;P2;durP2;ratioP2
14892;SDS011;7538;53.626;9.906;2022-10-23T00:00:11;29.73;;;18.10;;
14892;SDS011;7538;53.626;9.906;2022-10-23T00:02:38;26.20;;;18.15;;
14892;SDS011;7538;53.626;9.906;2022-10-23T00:05:05;23.67;;;16.88;;
14892;SDS011;7538;53.626;9.906;2022-10-23T00:07:32;26.33;;;18.88;;
14892;SDS011;7538;53.626;9.906;2022-10-23T00:09:59;23.60;;;17.60;;
14892;SDS011;7538;53.626;9.906;2022-10-23T00:12:26;23.20;;;17.52;;
14892;SDS011;7538;53.626;9.906;2022-10-23T00:14:53;22.73;;;17.52;;
14892;SDS011;7538;53.626;9.906;2022-10-23T00:17:21;22.88;;;17.73;;
14892;SDS011;7538;53.626;9.906;2022-10-23T00:19:48;26.05;;;19.08;;
14892;SDS011;7538;53.626;9.906;2022-10-23T00:22:14;23.13;;;17.75;;
14892;SDS011;7538;53.626;9.906;2022-10-23T00:24:41;24.35;;;18.35;;
14892;SDS011;7538;53.626;9.906;2022-10-23T00:27:08;23.45;;;17.88;;
14892;SDS011;7538;53.626;9.906;2022-10-23T00:29:35;29.08;;;20.48;;
14892;SDS011;7538;53.626;9.906;2022-10-23T00:32:01;24.40;;;18.33;;
14892;SDS011;7538;53.626;9.906;2022-10-23T00:34:30;21.63;;;17.90;;
14892;SDS011;7538;53.626;9.906;2022-10-23T00:36:56;27.60;;;19.60;;
14892;SDS011;7538;53.626;9.906;2022-10-23T00:39:23;25.90;;;18.77;;
14892;SDS011;7538;53.626;9.906;2022-10-23T00:41:50;27.15;;;18.67;;
14892;SDS011;7538;53.626;9.906;2022-10-23T00:47:21;31.30;;;22.30;;
14892;SDS011;7538;53.626;9.906;2022-10-23T00:49:49;29.00;;;19.98;;
14892;SDS011;7538;53.626;9.906;2022-10-23T00:52:16;28.15;;;20.55;;
14892;SDS011;7538;53.626;9.906;2022-10-23T00:54:43;31.55;;;21.45;;
14892;SDS011;7538;53.626;9.906;2022-10-23T00:57:10;33.60;;;21.45;;
14892;SDS011;7538;53.626;9.906;2022-10-23T00:59:38;28.50;;;19.92;;
14892;SDS011;7538;53.626;9.906;2022-10-23T01:02:05;30.40;;;21.08;;
14892;SDS011;7538;53.626;9.906;2022-10-23T01:04:33;32.88;;;21.77;;
14892;SDS011;7538;53.626;9.906;2022-10-23T01:07:04;29.00;;;20.38;;
14892;SDS011;7538;53.626;9.906;2022-10-23T01:09:36;27.15;;;19.52;;
14892;SDS011;7538;53.626;9.906;2022-10-23T01:12:09;27.73;;;20.00;;
14892;SDS011;7538;53.626;9.906;2022-10-23T01:14:47;25.48;;;17.95;;
14892;SDS011;7538;53.626;9.906;2022-10-23T01:17:28;25.33;;;18.05;;
14892;SDS011;7538;53.626;9.906;2022-10-23T01:20:06;24.98;;;18.77;;
14892;SDS011;7538;53.626;9.906;2022-10-23T01:22:50;24.50;;;18.58;;
14892;SDS011;7538;53.626;9.906;2022-10-23T01:25:34;24.10;;;18.33;;
14892;SDS011;7538;53.626;9.906;2022-10-23T01:28:19;28.58;;;19.20;;
14892;SDS011;7538;53.626;9.906;2022-10-23T01:30:51;22.88;;;17.33;;
14892;SDS011;7538;53.626;9.906;2022-10-23T01:33:21;29.30;;;19.33;;
14892;SDS011;7538;53.626;9.906;2022-10-23T01:35:51;27.92;;;18.35;;
14892;SDS011;7538;53.626;9.906;2022-10-23T01:38:23;25.55;;;18.20;;
14892;SDS011;7538;53.626;9.906;2022-10-23T01:40:54;33.95;;;22.17;;
14892;SDS011;7538;53.626;9.906;2022-10-23T01:43:28;27.33;;;21.08;;
14892;SDS011;7538;53.626;9.906;2022-10-23T01:45:58;35.28;;;22.17;;
14892;SDS011;7538;53.626;9.906;2022-10-23T01:48:28;28.20;;;19.25;;
14892;SDS011;7538;53.626;9.906;2022-10-23T01:50:58;27.05;;;20.67;;
14892;SDS011;7538;53.626;9.906;2022-10-23T01:53:29;26.35;;;18.50;;
14892;SDS011;7538;53.626;9.906;2022-10-23T01:55:57;31.95;;;21.33;;
14892;SDS011;7538;53.626;9.906;2022-10-23T01:58:28;28.08;;;19.88;;
14892;SDS011;7538;53.626;9.906;2022-10-23T02:00:57;35.45;;;22.25;;
14892;SDS011;7538;53.626;9.906;2022-10-23T02:03:26;31.30;;;20.15;;
14892;SDS011;7538;53.626;9.906;2022-10-23T02:05:56;30.92;;;21.02;;
14892;SDS011;7538;53.626;9.906;2022-10-23T02:08:23;24.38;;;18.92;;
14892;SDS011;7538;53.626;9.906;2022-10-23T02:10:51;22.70;;;17.73;;
14892;SDS011;7538;53.626;9.906;2022-10-23T02:13:27;24.20;;;18.50;;
14892;SDS011;7538;53.626;9.906;2022-10-23T02:16:00;27.05;;;18.63;;
14892;SDS011;7538;53.626;9.906;2022-10-23T02:18:33;22.98;;;18.05;;
14892;SDS011;7538;53.626;9.906;2022-10-23T02:21:08;28.15;;;19.17;;
14892;SDS011;7538;53.626;9.906;2022-10-23T02:23:38;28.45;;;18.17;;
14892;SDS011;7538;53.626;9.906;2022-10-23T02:26:13;25.00;;;17.70;;
14892;SDS011;7538;53.626;9.906;2022-10-23T02:28:44;26.20;;;19.08;;
14892;SDS011;7538;53.626;9.906;2022-10-23T02:31:15;28.13;;;18.58;;
14892;SDS011;7538;53.626;9.906;2022-10-23T02:33:45;28.85;;;20.73;;
14892;SDS011;7538;53.626;9.906;2022-10-23T02:36:12;33.47;;;21.45;;
14892;SDS011;7538;53.626;9.906;2022-10-23T02:38:40;31.15;;;21.42;;
14892;SDS011;7538;53.626;9.906;2022-10-23T02:44:06;27.13;;;18.92;;
14892;SDS011;7538;53.626;9.906;2022-10-23T02:46:50;27.95;;;18.35;;
14892;SDS011;7538;53.626;9.906;2022-10-23T02:49:24;26.75;;;18.20;;
14892;SDS011;7538;53.626;9.906;2022-10-23T02:51:58;32.40;;;19.73;;
14892;SDS011;7538;53.626;9.906;2022-10-23T02:54:37;29.30;;;18.00;;
14892;SDS011;7538;53.626;9.906;2022-10-23T02:57:13;28.20;;;18.52;;
14892;SDS011;7538;53.626;9.906;2022-10-23T02:59:48;24.67;;;18.30;;
14892;SDS011;7538;53.626;9.906;2022-10-23T03:02:23;28.85;;;19.17;;
14892;SDS011;7538;53.626;9.906;2022-10-23T03:04:53;25.33;;;17.60;;
14892;SDS011;7538;53.626;9.906;2022-10-23T03:07:21;27.33;;;18.70;;
14892;SDS011;7538;53.626;9.906;2022-10-23T03:09:51;25.35;;;18.48;;
14892;SDS011;7538;53.626;9.906;2022-10-23T03:12:18;25.58;;;19.30;;
14892;SDS011;7538;53.626;9.906;2022-10-23T03:14:46;32.20;;;19.48;;
14892;SDS011;7538;53.626;9.906;2022-10-23T03:17:13;28.42;;;17.75;;
14892;SDS011;7538;53.626;9.906;2022-10-23T03:19:39;27.70;;;18.52;;
14892;SDS011;7538;53.626;9.906;2022-10-23T03:22:06;21.52;;;16.70;;
14892;SDS011;7538;53.626;9.906;2022-10-23T03:24:33;24.75;;;16.55;;
14892;SDS011;7538;53.626;9.906;2022-10-23T03:27:00;21.67;;;16.38;;
14892;SDS011;7538;53.626;9.906;2022-10-23T03:29:27;19.50;;;16.33;;
14892;SDS011;7538;53.626;9.906;2022-10-23T03:31:55;24.83;;;17.67;;
14892;SDS011;7538;53.626;9.906;2022-10-23T03:34:21;26.88;;;17.17;;
14892;SDS011;7538;53.626;9.906;2022-10-23T03:36:48;26.38;;;17.52;;
14892;SDS011;7538;53.626;9.906;2022-10-23T03:39:15;23.40;;;16.08;;
14892;SDS011;7538;53.626;9.906;2022-10-23T03:41:42;22.58;;;16.17;;
14892;SDS011;7538;53.626;9.906;2022-10-23T03:44:09;20.45;;;15.48;;
14892;SDS011;7538;53.626;9.906;2022-10-23T03:46:35;21.02;;;15.80;;
14892;SDS011;7538;53.626;9.906;2022-10-23T03:49:04;23.98;;;15.88;;
14892;SDS011;7538;53.626;9.906;2022-10-23T03:51:30;21.98;;;15.68;;
14892;SDS011;7538;53.626;9.906;2022-10-23T03:53:57;21.17;;;15.23;;
14892;SDS011;7538;53.626;9.906;2022-10-23T03:56:24;24.27;;;15.18;;
14892;SDS011;7538;53.626;9.906;2022-10-23T03:58:51;23.80;;;15.50;;
14892;SDS011;7538;53.626;9.906;2022-10-23T04:01:18;24.67;;;16.42;;
14892;SDS011;7538;53.626;9.906;2022-10-23T04:03:44;21.55;;;15.40;;
14892;SDS011;7538;53.626;9.906;2022-10-23T04:06:12;22.70;;;14.65;;
14892;SDS011;7538;53.626;9.906;2022-10-23T04:08:41;20.83;;;14.93;;
14892;SDS011;7538;53.626;9.906;2022-10-23T04:11:08;24.00;;;15.40;;
14892;SDS011;7538;53.626;9.906;2022-10-23T04:13:35;21.38;;;14.35;;
14892;SDS011;7538;53.626;9.906;2022-10-23T04:16:02;21.67;;;14.07;;
14892;SDS011;7538;53.626;9.906;2022-10-23T04:18:29;22.67;;;14.85;;
14892;SDS011;7538;53.626;9.906;2022-10-23T04:20:56;22.77;;;14.68;;
14892;SDS011;7538;53.626;9.906;2022-10-23T04:23:24;20.08;;;13.60;;
14892;SDS011;7538;53.626;9.906;2022-10-23T04:25:51;21.23;;;14.27;;
14892;SDS011;7538;53.626;9.906;2022-10-23T04:28:20;17.02;;;12.55;;
14892;SDS011;7538;53.626;9.906;2022-10-23T04:30:47;27.60;;;15.88;;
14892;SDS011;7538;53.626;9.906;2022-10-23T04:33:14;20.13;;;15.27;;
14892;SDS011;7538;53.626;9.906;2022-10-23T04:35:40;22.90;;;15.20;;
14892;SDS011;7538;53.626;9.906;2022-10-23T04:38:07;19.00;;;14.50;;
14892;SDS011;7538;53.626;9.906;2022-10-23T04:40:35;24.77;;;16.02;;
14892;SDS011;7538;53.626;9.906;2022-10-23T04:43:02;24.02;;;15.63;;
14892;SDS011;7538;53.626;9.906;2022-10-23T04:45:30;21.63;;;15.25;;
14892;SDS011;7538;53.626;9.906;2022-10-23T04:47:56;19.85;;;14.32;;
14892;SDS011;7538;53.626;9.906;2022-10-23T04:50:23;21.08;;;15.50;;
14892;SDS011;7538;53.626;9.906;2022-10-23T04:52:52;22.58;;;14.63;;
14892;SDS011;7538;53.626;9.906;2022-10-23T04:55:19;18.15;;;13.55;;
14892;SDS011;7538;53.626;9.906;2022-10-23T04:57:48;19.88;;;15.15;;
14892;SDS011;7538;53.626;9.906;2022-10-23T05:00:15;23.40;;;15.18;;
14892;SDS011;7538;53.626;9.906;2022-10-23T05:02:42;19.20;;;13.95;;
14892;SDS011;7538;53.626;9.906;2022-10-23T05:05:09;19.90;;;14.20;;
14892;SDS011;7538;53.626;9.906;2022-10-23T05:07:36;19.63;;;14.50;;
14892;SDS011;7538;53.626;9.906;2022-10-23T05:10:03;23.75;;;16.50;;
14892;SDS011;7538;53.626;9.906;2022-10-23T05:12:31;27.15;;;15.57;;
14892;SDS011;7538;53.626;9.906;2022-10-23T05:14:59;24.63;;;15.95;;
14892;SDS011;7538;53.626;9.906;2022-10-23T05:17:27;22.15;;;15.38;;
14892;SDS011;7538;53.626;9.906;2022-10-23T05:19:57;23.52;;;15.07;;
14892;SDS011;7538;53.626;9.906;2022-10-23T05:22:27;19.15;;;14.48;;
14892;SDS011;7538;53.626;9.906;2022-10-23T05:24:56;20.85;;;14.13;;
14892;SDS011;7538;53.626;9.906;2022-10-23T05:27:26;23.05;;;14.88;;
14892;SDS011;7538;53.626;9.906;2022-10-23T05:29:52;27.38;;;16.00;;
14892;SDS011;7538;53.626;9.906;2022-10-23T05:32:20;23.77;;;16.27;;
14892;SDS011;7538;53.626;9.906;2022-10-23T05:34:50;21.38;;;16.85;;
14892;SDS011;7538;53.626;9.906;2022-10-23T05:37:17;27.15;;;16.35;;
14892;SDS011;7538;53.626;9.906;2022-10-23T05:42:56;24.55;;;15.27;;
14892;SDS011;7538;53.626;9.906;2022-10-23T05:45:23;24.35;;;15.15;;
14892;SDS011;7538;53.626;9.906;2022-10-23T05:47:51;23.02;;;14.27;;
14892;SDS011;7538;53.626;9.906;2022-10-23T05:50:18;21.83;;;14.88;;
14892;SDS011;7538;53.626;9.906;2022-10-23T05:56:03;24.52;;;15.57;;
14892;SDS011;7538;53.626;9.906;2022-10-23T06:01:51;21.05;;;14.13;;
14892;SDS011;7538;53.626;9.906;2022-10-23T06:04:19;20.00;;;13.55;;
14892;SDS011;7538;53.626;9.906;2022-10-23T06:06:46;24.15;;;14.48;;
14892;SDS011;7538;53.626;9.906;2022-10-23T06:09:13;23.40;;;15.50;;
14892;SDS011;7538;53.626;9.906;2022-10-23T06:11:40;23.88;;;15.32;;
14892;SDS011;7538;53.626;9.906;2022-10-23T06:14:07;21.40;;;14.50;;
14892;SDS011;7538;53.626;9.906;2022-10-23T06:16:34;25.55;;;15.75;;
14892;SDS011;7538;53.626;9.906;2022-10-23T06:19:01;22.40;;;13.85;;
14892;SDS011;7538;53.626;9.906;2022-10-23T06:21:29;21.73;;;14.55;;
14892;SDS011;7538;53.626;9.906;2022-10-23T06:23:56;23.40;;;14.57;;
14892;SDS011;7538;53.626;9.906;2022-10-23T06:26:22;21.00;;;14.05;;
14892;SDS011;7538;53.626;9.906;2022-10-23T06:28:49;26.17;;;13.90;;
14892;SDS011;7538;53.626;9.906;2022-10-23T06:31:16;22.88;;;14.50;;
14892;SDS011;7538;53.626;9.906;2022-10-23T06:33:44;21.08;;;14.82;;
14892;SDS011;7538;53.626;9.906;2022-10-23T06:36:11;19.38;;;13.30;;
14892;SDS011;7538;53.626;9.906;2022-10-23T06:38:39;20.20;;;14.15;;
14892;SDS011;7538;53.626;9.906;2022-10-23T06:41:06;20.48;;;13.60;;
14892;SDS011;7538;53.626;9.906;2022-10-23T06:43:37;16.52;;;13.05;;
14892;SDS011;7538;53.626;9.906;2022-10-23T06:46:04;19.08;;;12.82;;
14892;SDS011;7538;53.626;9.906;2022-10-23T06:48:31;23.58;;;14.95;;
14892;SDS011;7538;53.626;9.906;2022-10-23T06:50:58;19.58;;;14.27;;
14892;SDS011;7538;53.626;9.906;2022-10-23T06:53:30;20.20;;;13.25;;
14892;SDS011;7538;53.626;9.906;2022-10-23T06:55:59;21.70;;;13.60;;
14892;SDS011;7538;53.626;9.906;2022-10-23T06:58:27;21.17;;;13.70;;
14892;SDS011;7538;53.626;9.906;2022-10-23T07:00:54;20.10;;;14.20;;
14892;SDS011;7538;53.626;9.906;2022-10-23T07:03:21;22.45;;;14.68;;
14892;SDS011;7538;53.626;9.906;2022-10-23T07:05:48;19.98;;;13.30;;
14892;SDS011;7538;53.626;9.906;2022-10-23T07:08:14;20.35;;;13.35;;
14892;SDS011;7538;53.626;9.906;2022-10-23T07:10:41;19.38;;;14.05;;
14892;SDS011;7538;53.626;9.906;2022-10-23T07:13:10;19.45;;;13.18;;
14892;SDS011;7538;53.626;9.906;2022-10-23T07:15:37;20.45;;;14.30;;
14892;SDS011;7538;53.626;9.906;2022-10-23T07:18:05;23.80;;;14.70;;
14892;SDS011;7538;53.626;9.906;2022-10-23T07:20:38;22.58;;;13.60;;
14892;SDS011;7538;53.626;9.906;2022-10-23T07:23:05;19.08;;;13.65;;
14892;SDS011;7538;53.626;9.906;2022-10-23T07:25:32;20.10;;;14.65;;
14892;SDS011;7538;53.626;9.906;2022-10-23T07:27:58;19.40;;;14.23;;
14892;SDS011;7538;53.626;9.906;2022-10-23T07:30:26;19.88;;;14.95;;
14892;SDS011;7538;53.626;9.906;2022-10-23T07:32:53;17.63;;;14.30;;
14892;SDS011;7538;53.626;9.906;2022-10-23T07:35:20;19.13;;;13.35;;
14892;SDS011;7538;53.626;9.906;2022-10-23T07:37:47;19.42;;;14.48;;
14892;SDS011;7538;53.626;9.906;2022-10-23T07:40:14;17.67;;;14.32;;
14892;SDS011;7538;53.626;9.906;2022-10-23T07:42:42;16.95;;;13.07;;
14892;SDS011;7538;53.626;9.906;2022-10-23T07:45:09;19.52;;;13.13;;
14892;SDS011;7538;53.626;9.906;2022-10-23T07:47:38;18.55;;;13.40;;
14892;SDS011;7538;53.626;9.906;2022-10-23T07:50:05;15.35;;;12.95;;
14892;SDS011;7538;53.626;9.906;2022-10-23T07:52:33;16.00;;;12.73;;
14892;SDS011;7538;53.626;9.906;2022-10-23T07:55:00;17.90;;;13.13;;
14892;SDS011;7538;53.626;9.906;2022-10-23T07:57:27;15.40;;;10.77;;
14892;SDS011;7538;53.626;9.906;2022-10-23T07:59:54;16.27;;;11.00;;
14892;SDS011;7538;53.626;9.906;2022-10-23T08:02:21;10.93;;;9.13;;
14892;SDS011;7538;53.626;9.906;2022-10-23T08:04:49;11.05;;;8.70;;
14892;SDS011;7538;53.626;9.906;2022-10-23T08:07:16;10.60;;;8.77;;
14892;SDS011;7538;53.626;9.906;2022-10-23T08:09:42;9.88;;;8.50;;
14892;SDS011;7538;53.626;9.906;2022-10-23T08:12:09;9.02;;;8.18;;
14892;SDS011;7538;53.626;9.906;2022-10-23T08:14:36;10.55;;;7.88;;
14892;SDS011;7538;53.626;9.906;2022-10-23T08:17:03;10.85;;;7.93;;
14892;SDS011;7538;53.626;9.906;2022-10-23T08:19:33;9.60;;;7.55;;
14892;SDS011;7538;53.626;9.906;2022-10-23T08:22:01;10.55;;;7.07;;
14892;SDS011;7538;53.626;9.906;2022-10-23T08:24:28;9.02;;;6.90;;
14892;SDS011;7538;53.626;9.906;2022-10-23T08:26:55;7.78;;;6.50;;
14892;SDS011;7538;53.626;9.906;2022-10-23T08:29:22;6.72;;;5.68;;
14892;SDS011;7538;53.626;9.906;2022-10-23T08:31:51;7.80;;;6.78;;
14892;SDS011;7538;53.626;9.906;2022-10-23T08:34:19;12.38;;;6.32;;
14892;SDS011;7538;53.626;9.906;2022-10-23T08:36:46;7.55;;;5.80;;
14892;SDS011;7538;53.626;9.906;2022-10-23T08:39:14;7.00;;;5.82;;
14892;SDS011;7538;53.626;9.906;2022-10-23T08:41:42;7.95;;;5.72;;
14892;SDS011;7538;53.626;9.906;2022-10-23T08:44:17;10.25;;;5.63;;
14892;SDS011;7538;53.626;9.906;2022-10-23T08:46:48;8.85;;;5.93;;
14892;SDS011;7538;53.626;9.906;2022-10-23T08:49:35;7.13;;;6.03;;
14892;SDS011;7538;53.626;9.906;2022-10-23T08:52:11;7.63;;;5.85;;
14892;SDS011;7538;53.626;9.906;2022-10-23T08:54:46;7.72;;;5.53;;
14892;SDS011;7538;53.626;9.906;2022-10-23T08:57:22;6.28;;;5.00;;
14892;SDS011;7538;53.626;9.906;2022-10-23T08:59:57;6.38;;;5.03;;
14892;SDS011;7538;53.626;9.906;2022-10-23T09:02:28;6.13;;;5.10;;
14892;SDS011;7538;53.626;9.906;2022-10-23T09:04:58;8.40;;;5.35;;
14892;SDS011;7538;53.626;9.906;2022-10-23T09:07:29;8.95;;;4.80;;
14892;SDS011;7538;53.626;9.906;2022-10-23T09:10:12;10.52;;;4.90;;
14892;SDS011;7538;53.626;9.906;2022-10-23T09:16:06;6.97;;;4.63;;
14892;SDS011;7538;53.626;9.906;2022-10-23T09:18:46;5.80;;;4.80;;
14892;SDS011;7538;53.626;9.906;2022-10-23T09:21:14;6.18;;;4.85;;
14892;SDS011;7538;53.626;9.906;2022-10-23T09:23:41;6.85;;;4.68;;
14892;SDS011;7538;53.626;9.906;2022-10-23T09:26:13;5.90;;;4.60;;
14892;SDS011;7538;53.626;9.906;2022-10-23T09:28:42;6.28;;;4.95;;
14892;SDS011;7538;53.626;9.906;2022-10-23T09:31:12;7.10;;;4.72;;
14892;SDS011;7538;53.626;9.906;2022-10-23T09:33:40;5.57;;;4.90;;
14892;SDS011;7538;53.626;9.906;2022-10-23T09:36:19;8.68;;;4.47;;
14892;SDS011;7538;53.626;9.906;2022-10-23T09:38:49;9.43;;;5.03;;
14892;SDS011;7538;53.626;9.906;2022-10-23T09:41:20;5.93;;;4.85;;
14892;SDS011;7538;53.626;9.906;2022-10-23T09:44:01;5.47;;;4.97;;
14892;SDS011;7538;53.626;9.906;2022-10-23T09:46:41;9.82;;;4.72;;
14892;SDS011;7538;53.626;9.906;2022-10-23T09:49:14;8.07;;;4.57;;
14892;SDS011;7538;53.626;9.906;2022-10-23T09:51:46;6.07;;;4.30;;
14892;SDS011;7538;53.626;9.906;2022-10-23T09:54:19;5.60;;;4.20;;
14892;SDS011;7538;53.626;9.906;2022-10-23T09:56:49;7.07;;;4.20;;
14892;SDS011;7538;53.626;9.906;2022-10-23T09:59:20;7.70;;;4.15;;
14892;SDS011;7538;53.626;9.906;2022-10-23T10:01:51;6.18;;;4.38;;
14892;SDS011;7538;53.626;9.906;2022-10-23T10:04:29;5.03;;;4.13;;
14892;SDS011;7538;53.626;9.906;2022-10-23T10:06:57;5.07;;;4.20;;
14892;SDS011;7538;53.626;9.906;2022-10-23T10:09:26;6.90;;;4.15;;
14892;SDS011;7538;53.626;9.906;2022-10-23T10:11:55;6.45;;;4.03;;
14892;SDS011;7538;53.626;9.906;2022-10-23T10:14:42;5.38;;;4.15;;
14892;SDS011;7538;53.626;9.906;2022-10-23T10:17:31;5.97;;;4.53;;
14892;SDS011;7538;53.626;9.906;2022-10-23T10:20:06;6.65;;;3.85;;
14892;SDS011;7538;53.626;9.906;2022-10-23T10:22:58;7.45;;;4.40;;
14892;SDS011;7538;53.626;9.906;2022-10-23T10:25:32;8.00;;;4.20;;
14892;SDS011;7538;53.626;9.906;2022-10-23T10:28:10;5.68;;;4.03;;
14892;SDS011;7538;53.626;9.906;2022-10-23T10:30:52;5.78;;;3.63;;
14892;SDS011;7538;53.626;9.906;2022-10-23T10:33:31;7.45;;;4.40;;
14892;SDS011;7538;53.626;9.906;2022-10-23T10:36:04;6.80;;;3.88;;
14892;SDS011;7538;53.626;9.906;2022-10-23T10:38:43;5.70;;;4.20;;
14892;SDS011;7538;53.626;9.906;2022-10-23T10:41:33;6.72;;;3.80;;
14892;SDS011;7538;53.626;9.906;2022-10-23T10:47:08;10.43;;;4.57;;
14892;SDS011;7538;53.626;9.906;2022-10-23T10:49:41;6.43;;;4.18;;
14892;SDS011;7538;53.626;9.906;2022-10-23T10:52:23;6.53;;;3.90;;
14892;SDS011;7538;53.626;9.906;2022-10-23T10:54:58;7.93;;;4.30;;
14892;SDS011;7538;53.626;9.906;2022-10-23T10:57:33;7.93;;;3.70;;
14892;SDS011;7538;53.626;9.906;2022-10-23T11:00:12;9.68;;;4.60;;
14892;SDS011;7538;53.626;9.906;2022-10-23T11:02:42;7.43;;;4.20;;
14892;SDS011;7538;53.626;9.906;2022-10-23T11:05:18;7.47;;;4.25;;
14892;SDS011;7538;53.626;9.906;2022-10-23T11:07:52;5.30;;;3.67;;
14892;SDS011;7538;53.626;9.906;2022-10-23T11:10:21;7.07;;;3.83;;
14892;SDS011;7538;53.626;9.906;2022-10-23T11:12:48;9.38;;;4.20;;
14892;SDS011;7538;53.626;9.906;2022-10-23T11:15:18;7.35;;;4.13;;
14892;SDS011;7538;53.626;9.906;2022-10-23T11:17:49;8.15;;;3.90;;
14892;SDS011;7538;53.626;9.906;2022-10-23T11:20:36;9.65;;;4.13;;
14892;SDS011;7538;53.626;9.906;2022-10-23T11:26:19;5.20;;;3.72;;
14892;SDS011;7538;53.626;9.906;2022-10-23T11:28:58;5.93;;;4.28;;
14892;SDS011;7538;53.626;9.906;2022-10-23T11:31:42;10.30;;;4.32;;
14892;SDS011;7538;53.626;9.906;2022-10-23T11:34:27;11.38;;;4.38;;
14892;SDS011;7538;53.626;9.906;2022-10-23T11:37:15;6.75;;;3.88;;
14892;SDS011;7538;53.626;9.906;2022-10-23T11:39:53;6.05;;;3.60;;
14892;SDS011;7538;53.626;9.906;2022-10-23T11:43:21;10.07;;;3.95;;
14892;SDS011;7538;53.626;9.906;2022-10-23T11:45:52;8.70;;;3.85;;
14892;SDS011;7538;53.626;9.906;2022-10-23T11:48:34;7.82;;;4.10;;
14892;SDS011;7538;53.626;9.906;2022-10-23T11:51:02;7.50;;;3.95;;
14892;SDS011;7538;53.626;9.906;2022-10-23T11:53:37;8.80;;;3.92;;
14892;SDS011;7538;53.626;9.906;2022-10-23T11:56:25;9.40;;;3.83;;
14892;SDS011;7538;53.626;9.906;2022-10-23T11:58:55;7.55;;;3.80;;
14892;SDS011;7538;53.626;9.906;2022-10-23T12:01:27;8.15;;;3.50;;
14892;SDS011;7538;53.626;9.906;2022-10-23T12:04:01;6.85;;;3.42;;
14892;SDS011;7538;53.626;9.906;2022-10-23T12:06:32;8.18;;;3.50;;
14892;SDS011;7538;53.626;9.906;2022-10-23T12:09:19;6.55;;;2.92;;
14892;SDS011;7538;53.626;9.906;2022-10-23T12:12:00;4.38;;;3.10;;
14892;SDS011;7538;53.626;9.906;2022-10-23T12:14:31;9.75;;;3.30;;
14892;SDS011;7538;53.626;9.906;2022-10-23T12:16:59;5.97;;;3.70;;
14892;SDS011;7538;53.626;9.906;2022-10-23T12:19:29;6.70;;;3.72;;
14892;SDS011;7538;53.626;9.906;2022-10-23T12:22:12;8.02;;;3.55;;
14892;SDS011;7538;53.626;9.906;2022-10-23T12:24:52;6.60;;;3.45;;
14892;SDS011;7538;53.626;9.906;2022-10-23T12:31:37;7.32;;;3.85;;
14892;SDS011;7538;53.626;9.906;2022-10-23T12:34:22;11.50;;;4.20;;
14892;SDS011;7538;53.626;9.906;2022-10-23T12:44:29;7.32;;;3.63;;
14892;SDS011;7538;53.626;9.906;2022-10-23T12:50:39;6.88;;;4.00;;
14892;SDS011;7538;53.626;9.906;2022-10-23T12:53:15;6.20;;;3.80;;
14892;SDS011;7538;53.626;9.906;2022-10-23T12:55:45;7.80;;;4.60;;
14892;SDS011;7538;53.626;9.906;2022-10-23T12:58:18;10.00;;;3.63;;
14892;SDS011;7538;53.626;9.906;2022-10-23T13:00:50;6.78;;;4.05;;
14892;SDS011;7538;53.626;9.906;2022-10-23T13:03:20;7.47;;;3.45;;
14892;SDS011;7538;53.626;9.906;2022-10-23T13:05:48;7.35;;;3.78;;
14892;SDS011;7538;53.626;9.906;2022-10-23T13:08:18;6.45;;;3.75;;
14892;SDS011;7538;53.626;9.906;2022-10-23T13:10:47;8.65;;;3.72;;
14892;SDS011;7538;53.626;9.906;2022-10-23T13:13:16;3.95;;;3.33;;
14892;SDS011;7538;53.626;9.906;2022-10-23T13:15:48;7.53;;;3.58;;
14892;SDS011;7538;53.626;9.906;2022-10-23T13:18:17;5.35;;;3.70;;
14892;SDS011;7538;53.626;9.906;2022-10-23T13:20:54;7.05;;;3.58;;
14892;SDS011;7538;53.626;9.906;2022-10-23T13:23:25;8.20;;;3.80;;
14892;SDS011;7538;53.626;9.906;2022-10-23T13:25:56;10.45;;;3.80;;
14892;SDS011;7538;53.626;9.906;2022-10-23T13:28:24;4.18;;;2.97;;
14892;SDS011;7538;53.626;9.906;2022-10-23T13:30:56;6.45;;;3.90;;
14892;SDS011;7538;53.626;9.906;2022-10-23T13:33:31;9.77;;;3.42;;
14892;SDS011;7538;53.626;9.906;2022-10-23T13:36:01;8.35;;;3.67;;
14892;SDS011;7538;53.626;9.906;2022-10-23T13:38:31;4.72;;;3.50;;
14892;SDS011;7538;53.626;9.906;2022-10-23T13:40:59;9.23;;;3.83;;
14892;SDS011;7538;53.626;9.906;2022-10-23T13:43:27;8.73;;;3.85;;
14892;SDS011;7538;53.626;9.906;2022-10-23T13:45:58;6.20;;;3.53;;
14892;SDS011;7538;53.626;9.906;2022-10-23T13:48:26;7.25;;;3.58;;
14892;SDS011;7538;53.626;9.906;2022-10-23T13:50:57;5.85;;;3.28;;
14892;SDS011;7538;53.626;9.906;2022-10-23T13:53:32;7.60;;;3.75;;
14892;SDS011;7538;53.626;9.906;2022-10-23T13:55:59;8.52;;;3.92;;
14892;SDS011;7538;53.626;9.906;2022-10-23T13:58:27;10.20;;;3.83;;
14892;SDS011;7538;53.626;9.906;2022-10-23T14:00:54;5.65;;;3.47;;
14892;SDS011;7538;53.626;9.906;2022-10-23T14:03:20;5.80;;;3.53;;
14892;SDS011;7538;53.626;9.906;2022-10-23T14:05:48;4.60;;;3.13;;
14892;SDS011;7538;53.626;9.906;2022-10-23T14:08:16;8.02;;;3.38;;
14892;SDS011;7538;53.626;9.906;2022-10-23T14:10:44;5.95;;;2.92;;
14892;SDS011;7538;53.626;9.906;2022-10-23T14:13:10;4.18;;;3.13;;
14892;SDS011;7538;53.626;9.906;2022-10-23T14:15:37;4.28;;;2.88;;
14892;SDS011;7538;53.626;9.906;2022-10-23T14:18:04;7.22;;;3.67;;
14892;SDS011;7538;53.626;9.906;2022-10-23T14:20:31;6.10;;;3.30;;
14892;SDS011;7538;53.626;9.906;2022-10-23T14:22:58;6.18;;;3.17;;
14892;SDS011;7538;53.626;9.906;2022-10-23T14:25:26;5.97;;;2.80;;
14892;SDS011;7538;53.626;9.906;2022-10-23T14:27:53;8.75;;;3.35;;
14892;SDS011;7538;53.626;9.906;2022-10-23T14:30:20;6.07;;;3.15;;
14892;SDS011;7538;53.626;9.906;2022-10-23T14:32:47;6.05;;;3.00;;
14892;SDS011;7538;53.626;9.906;2022-10-23T14:35:14;6.90;;;3.17;;
14892;SDS011;7538;53.626;9.906;2022-10-23T14:37:46;7.57;;;3.20;;
14892;SDS011;7538;53.626;9.906;2022-10-23T14:40:13;7.07;;;3.30;;
14892;SDS011;7538;53.626;9.906;2022-10-23T14:42:41;6.93;;;3.55;;
14892;SDS011;7538;53.626;9.906;2022-10-23T14:45:09;6.68;;;2.97;;
14892;SDS011;7538;53.626;9.906;2022-10-23T14:47:36;5.63;;;3.05;;
14892;SDS011;7538;53.626;9.906;2022-10-23T14:50:03;6.15;;;2.95;;
14892;SDS011;7538;53.626;9.906;2022-10-23T14:52:30;4.60;;;2.65;;
14892;SDS011;7538;53.626;9.906;2022-10-23T14:54:57;8.93;;;3.22;;
14892;SDS011;7538;53.626;9.906;2022-10-23T14:57:25;6.00;;;3.47;;
14892;SDS011;7538;53.626;9.906;2022-10-23T14:59:53;7.18;;;3.67;;
14892;SDS011;7538;53.626;9.906;2022-10-23T15:02:20;7.10;;;3.42;;
14892;SDS011;7538;53.626;9.906;2022-10-23T15:04:47;4.68;;;3.30;;
14892;SDS011;7538;53.626;9.906;2022-10-23T15:07:14;7.10;;;3.22;;
14892;SDS011;7538;53.626;9.906;2022-10-23T15:09:41;7.53;;;3.50;;
14892;SDS011;7538;53.626;9.906;2022-10-23T15:12:08;4.63;;;3.00;;
14892;SDS011;7538;53.626;9.906;2022-10-23T15:14:34;7.95;;;3.33;;
14892;SDS011;7538;53.626;9.906;2022-10-23T15:17:03;7.30;;;3.42;;
14892;SDS011;7538;53.626;9.906;2022-10-23T15:19:29;5.28;;;3.25;;
14892;SDS011;7538;53.626;9.906;2022-10-23T15:21:56;7.18;;;3.22;;
14892;SDS011;7538;53.626;9.906;2022-10-23T15:24:23;5.90;;;3.60;;
14892;SDS011;7538;53.626;9.906;2022-10-23T15:26:50;9.82;;;3.65;;
14892;SDS011;7538;53.626;9.906;2022-10-23T15:29:17;8.43;;;3.80;;
14892;SDS011;7538;53.626;9.906;2022-10-23T15:31:46;5.32;;;3.30;;
14892;SDS011;7538;53.626;9.906;2022-10-23T15:34:19;17.17;;;10.52;;
14892;SDS011;7538;53.626;9.906;2022-10-23T15:36:47;8.63;;;3.38;;
14892;SDS011;7538;53.626;9.906;2022-10-23T15:39:15;14.15;;;4.68;;
14892;SDS011;7538;53.626;9.906;2022-10-23T15:41:43;7.53;;;3.65;;
14892;SDS011;7538;53.626;9.906;2022-10-23T15:44:14;5.03;;;3.22;;